sensor_id;sensor_type;location;lat;lon;timestamp;pressure;altitude;pressure_sealevel;temperature;humidity
10806;BME280;5455;53.224;6.000;2024-01-11T00:00:36;103471.41;;;-4.20;100.00
10806;BME280;5455;53.224;6.000;2024-01-11T00:03:03;103476.19;;;-4.22;100.00
10806;BME280;5455;53.224;6.000;2024-01-11T00:05:30;103483.25;;;-4.21;100.00
10806;BME280;5455;53.224;6.000;2024-01-11T00:07:57;103473.47;;;-4.22;100.00
10806;BME280;5455;53.224;6.000;2024-01-11T00:10:24;103486.72;;;-4.27;100.00
10806;BME280;5455;53.224;6.000;2024-01-11T00:12:51;103485.66;;;-4.26;100.00
10806;BME280;5455;53.224;6.000;2024-01-11T00:15:18;103477.97;;;-4.29;100.00
10806;BME280;5455;53.224;6.000;2024-01-11T00:17:45;103485.44;;;-4.31;100.00
10806;BME280;5455;53.224;6.000;2024-01-11T00:20:12;103474.22;;;-4.35;100.00
10806;BME280;5455;53.224;6.000;2024-01-11T00:22:39;103483.34;;;-4.36;100.00
10806;BME280;5455;53.224;6.000;2024-01-11T00:25:07;103470.50;;;-4.34;100.00
10806;BME280;5455;53.224;6.000;2024-01-11T00:27:35;103465.91;;;-4.40;100.00
10806;BME280;5455;53.224;6.000;2024-01-11T00:30:02;103472.91;;;-4.46;100.00
10806;BME280;5455;53.224;6.000;2024-01-11T00:32:29;103471.22;;;-4.47;100.00
10806;BME280;5455;53.224;6.000;2024-01-11T00:34:57;103477.63;;;-4.48;100.00
10806;BME280;5455;53.224;6.000;2024-01-11T00:37:23;103476.16;;;-4.50;100.00
10806;BME280;5455;53.224;6.000;2024-01-11T00:39:51;103471.59;;;-4.50;100.00
10806;BME280;5455;53.224;6.000;2024-01-11T00:42:18;103473.91;;;-4.47;100.00
10806;BME280;5455;53.224;6.000;2024-01-11T00:44:45;103471.38;;;-4.55;100.00
10806;BME280;5455;53.224;6.000;2024-01-11T00:47:12;103479.91;;;-4.51;100.00
10806;BME280;5455;53.224;6.000;2024-01-11T00:49:39;103471.59;;;-4.50;100.00
10806;BME280;5455;53.224;6.000;2024-01-11T00:52:06;103472.06;;;-4.46;100.00
10806;BME280;5455;53.224;6.000;2024-01-11T00:54:33;103474.50;;;-4.51;100.00
10806;BME280;5455;53.224;6.000;2024-01-11T00:57:00;103478.66;;;-4.49;100.00
10806;BME280;5455;53.224;6.000;2024-01-11T00:59:27;103469.94;;;-4.51;100.00
10806;BME280;5455;53.224;6.000;2024-01-11T01:01:54;103471.53;;;-4.56;100.00
10806;BME280;5455;53.224;6.000;2024-01-11T01:04:22;103463.44;;;-4.63;100.00
10806;BME280;5455;53.224;6.000;2024-01-11T01:06:48;103463.16;;;-4.68;100.00
10806;BME280;5455;53.224;6.000;2024-01-11T01:09:15;103469.84;;;-4.64;100.00
10806;BME280;5455;53.224;6.000;2024-01-11T01:11:42;103461.38;;;-4.61;100.00
10806;BME280;5455;53.224;6.000;2024-01-11T01:14:09;103459.31;;;-4.59;100.00
10806;BME280;5455;53.224;6.000;2024-01-11T01:16:36;103457.22;;;-4.63;100.00
10806;BME280;5455;53.224;6.000;2024-01-11T01:19:03;103457.59;;;-4.66;100.00
10806;BME280;5455;53.224;6.000;2024-01-11T01:21:30;103458.22;;;-4.64;100.00
10806;BME280;5455;53.224;6.000;2024-01-11T01:23:57;103445.28;;;-4.54;100.00
10806;BME280;5455;53.224;6.000;2024-01-11T01:26:24;103459.81;;;-4.49;100.00
10806;BME280;5455;53.224;6.000;2024-01-11T01:28:51;103459.63;;;-4.47;100.00
10806;BME280;5455;53.224;6.000;2024-01-11T01:31:20;103461.56;;;-4.62;100.00
10806;BME280;5455;53.224;6.000;2024-01-11T01:33:50;103459.38;;;-4.73;100.00
10806;BME280;5455;53.224;6.000;2024-01-11T01:36:17;103463.47;;;-4.77;100.00
10806;BME280;5455;53.224;6.000;2024-01-11T01:38:44;103462.09;;;-4.73;100.00
10806;BME280;5455;53.224;6.000;2024-01-11T01:41:12;103469.69;;;-4.77;100.00
10806;BME280;5455;53.224;6.000;2024-01-11T01:43:39;103462.69;;;-4.78;100.00
10806;BME280;5455;53.224;6.000;2024-01-11T01:46:06;103463.31;;;-4.76;100.00
10806;BME280;5455;53.224;6.000;2024-01-11T01:48:35;103471.31;;;-4.82;100.00
10806;BME280;5455;53.224;6.000;2024-01-11T01:51:03;103468.81;;;-4.84;100.00
10806;BME280;5455;53.224;6.000;2024-01-11T01:53:30;103454.72;;;-4.86;100.00
10806;BME280;5455;53.224;6.000;2024-01-11T01:55:57;103463.38;;;-4.90;100.00
10806;BME280;5455;53.224;6.000;2024-01-11T01:58:25;103459.84;;;-4.91;100.00
10806;BME280;5455;53.224;6.000;2024-01-11T02:00:52;103461.31;;;-4.88;100.00
10806;BME280;5455;53.224;6.000;2024-01-11T02:03:19;103468.81;;;-4.84;100.00
10806;BME280;5455;53.224;6.000;2024-01-11T02:05:46;103456.00;;;-4.82;100.00
10806;BME280;5455;53.224;6.000;2024-01-11T02:08:16;103443.56;;;-4.83;100.00
10806;BME280;5455;53.224;6.000;2024-01-11T02:10:44;103446.00;;;-4.88;100.00
10806;BME280;5455;53.224;6.000;2024-01-11T02:13:13;103455.09;;;-4.89;100.00
10806;BME280;5455;53.224;6.000;2024-01-11T02:15:40;103449.72;;;-4.89;100.00
10806;BME280;5455;53.224;6.000;2024-01-11T02:18:07;103461.94;;;-4.86;100.00
10806;BME280;5455;53.224;6.000;2024-01-11T02:20:34;103460.69;;;-4.90;100.00
10806;BME280;5455;53.224;6.000;2024-01-11T02:23:05;103458.84;;;-4.90;100.00
10806;BME280;5455;53.224;6.000;2024-01-11T02:25:33;103460.69;;;-4.90;100.00
10806;BME280;5455;53.224;6.000;2024-01-11T02:28:00;103460.41;;;-4.95;100.00
10806;BME280;5455;53.224;6.000;2024-01-11T02:30:27;103471.13;;;-5.02;100.00
10806;BME280;5455;53.224;6.000;2024-01-11T02:32:54;103466.31;;;-5.07;100.00
10806;BME280;5455;53.224;6.000;2024-01-11T02:35:22;103467.31;;;-5.08;100.00
10806;BME280;5455;53.224;6.000;2024-01-11T02:37:51;103463.16;;;-5.10;100.00
10806;BME280;5455;53.224;6.000;2024-01-11T02:40:18;103456.13;;;-5.11;100.00
10806;BME280;5455;53.224;6.000;2024-01-11T02:42:46;103461.50;;;-5.11;100.00
10806;BME280;5455;53.224;6.000;2024-01-11T02:45:13;103461.75;;;-5.06;100.00
10806;BME280;5455;53.224;6.000;2024-01-11T02:47:40;103474.38;;;-5.07;100.00
10806;BME280;5455;53.224;6.000;2024-01-11T02:50:08;103472.78;;;-5.01;100.00
10806;BME280;5455;53.224;6.000;2024-01-11T02:52:35;103478.16;;;-5.01;100.00
10806;BME280;5455;53.224;6.000;2024-01-11T02:55:02;103478.34;;;-5.03;100.00
10806;BME280;5455;53.224;6.000;2024-01-11T02:57:29;103475.84;;;-5.04;100.00
10806;BME280;5455;53.224;6.000;2024-01-11T02:59:56;103476.88;;;-5.05;100.00
10806;BME280;5455;53.224;6.000;2024-01-11T03:02:23;103472.53;;;-5.06;100.00
10806;BME280;5455;53.224;6.000;2024-01-11T03:04:50;103473.53;;;-5.07;100.00
10806;BME280;5455;53.224;6.000;2024-01-11T03:07:17;103466.22;;;-5.13;100.00
10806;BME280;5455;53.224;6.000;2024-01-11T03:09:44;103458.53;;;-5.16;100.00
10806;BME280;5455;53.224;6.000;2024-01-11T03:12:11;103466.34;;;-5.21;100.00
10806;BME280;5455;53.224;6.000;2024-01-11T03:14:38;103465.91;;;-5.25;100.00
10806;BME280;5455;53.224;6.000;2024-01-11T03:17:06;103463.59;;;-5.28;100.00
10806;BME280;5455;53.224;6.000;2024-01-11T03:19:33;103474.72;;;-5.31;100.00
10806;BME280;5455;53.224;6.000;2024-01-11T03:22:00;103475.94;;;-5.33;100.00
10806;BME280;5455;53.224;6.000;2024-01-11T03:24:31;103469.81;;;-5.27;100.00
10806;BME280;5455;53.224;6.000;2024-01-11T03:26:58;103468.78;;;-5.26;100.00
10806;BME280;5455;53.224;6.000;2024-01-11T03:29:25;103479.72;;;-5.28;100.00
10806;BME280;5455;53.224;6.000;2024-01-11T03:31:52;103479.72;;;-5.28;100.00
10806;BME280;5455;53.224;6.000;2024-01-11T03:34:19;103483.50;;;-5.22;100.00
10806;BME280;5455;53.224;6.000;2024-01-11T03:36:46;103471.72;;;-5.21;100.00
10806;BME280;5455;53.224;6.000;2024-01-11T03:39:13;103477.50;;;-5.24;100.00
10806;BME280;5455;53.224;6.000;2024-01-11T03:41:46;103455.34;;;-5.26;100.00
10806;BME280;5455;53.224;6.000;2024-01-11T03:44:14;103455.97;;;-5.24;100.00
10806;BME280;5455;53.224;6.000;2024-01-11T03:46:41;103456.81;;;-5.24;100.00
10806;BME280;5455;53.224;6.000;2024-01-11T03:49:08;103458.66;;;-5.24;100.00
10806;BME280;5455;53.224;6.000;2024-01-11T03:51:36;103450.81;;;-5.26;100.00
10806;BME280;5455;53.224;6.000;2024-01-11T03:54:03;103453.88;;;-5.29;100.00
10806;BME280;5455;53.224;6.000;2024-01-11T03:56:30;103464.41;;;-5.27;100.00
10806;BME280;5455;53.224;6.000;2024-01-11T03:58:57;103464.69;;;-5.22;100.00
10806;BME280;5455;53.224;6.000;2024-01-11T04:01:24;103451.06;;;-5.21;100.00
10806;BME280;5455;53.224;6.000;2024-01-11T04:03:51;103456.22;;;-5.19;100.00
10806;BME280;5455;53.224;6.000;2024-01-11T04:06:21;103453.38;;;-5.18;100.00
10806;BME280;5455;53.224;6.000;2024-01-11T04:08:50;103459.59;;;-5.17;100.00
10806;BME280;5455;53.224;6.000;2024-01-11T04:11:17;103456.50;;;-5.14;100.00
10806;BME280;5455;53.224;6.000;2024-01-11T04:13:44;103461.50;;;-5.11;100.00
10806;BME280;5455;53.224;6.000;2024-01-11T04:16:11;103453.25;;;-5.10;100.00
10806;BME280;5455;53.224;6.000;2024-01-11T04:18:38;103449.72;;;-5.10;100.00
10806;BME280;5455;53.224;6.000;2024-01-11T04:21:06;103454.47;;;-5.12;100.00
10806;BME280;5455;53.224;6.000;2024-01-11T04:23:36;103453.06;;;-5.08;100.00
10806;BME280;5455;53.224;6.000;2024-01-11T04:26:04;103460.16;;;-5.01;100.00
10806;BME280;5455;53.224;6.000;2024-01-11T04:28:31;103460.22;;;-4.94;100.00
10806;BME280;5455;53.224;6.000;2024-01-11T04:30:58;103466.63;;;-4.95;100.00
10806;BME280;5455;53.224;6.000;2024-01-11T04:33:25;103461.25;;;-4.95;100.00
10806;BME280;5455;53.224;6.000;2024-01-11T04:35:52;103472.47;;;-4.91;100.00
10806;BME280;5455;53.224;6.000;2024-01-11T04:38:19;103459.16;;;-4.78;100.00
10806;BME280;5455;53.224;6.000;2024-01-11T04:40:46;103467.72;;;-4.68;100.00
10806;BME280;5455;53.224;6.000;2024-01-11T04:43:13;103469.06;;;-4.58;100.00
10806;BME280;5455;53.224;6.000;2024-01-11T04:45:41;103482.00;;;-4.47;100.00
10806;BME280;5455;53.224;6.000;2024-01-11T04:48:08;103489.34;;;-4.34;100.00
10806;BME280;5455;53.224;6.000;2024-01-11T04:50:35;103492.94;;;-4.27;100.00
10806;BME280;5455;53.224;6.000;2024-01-11T04:53:03;103500.09;;;-4.13;100.00
10806;BME280;5455;53.224;6.000;2024-01-11T04:55:30;103510.13;;;-4.00;100.00
10806;BME280;5455;53.224;6.000;2024-01-11T04:57:57;103504.41;;;-3.84;100.00
10806;BME280;5455;53.224;6.000;2024-01-11T05:00:23;103508.22;;;-3.72;100.00
10806;BME280;5455;53.224;6.000;2024-01-11T05:02:50;103507.69;;;-3.61;100.00
10806;BME280;5455;53.224;6.000;2024-01-11T05:05:17;103520.34;;;-3.55;100.00
10806;BME280;5455;53.224;6.000;2024-01-11T05:07:44;103521.59;;;-3.51;100.00
10806;BME280;5455;53.224;6.000;2024-01-11T05:10:11;103512.31;;;-3.42;100.00
10806;BME280;5455;53.224;6.000;2024-01-11T05:12:39;103509.06;;;-3.30;100.00
10806;BME280;5455;53.224;6.000;2024-01-11T05:15:07;103504.72;;;-3.18;100.00
10806;BME280;5455;53.224;6.000;2024-01-11T05:17:36;103506.41;;;-3.17;100.00
10806;BME280;5455;53.224;6.000;2024-01-11T05:20:03;103496.47;;;-3.10;100.00
10806;BME280;5455;53.224;6.000;2024-01-11T05:22:31;103498.13;;;-3.09;100.00
10806;BME280;5455;53.224;6.000;2024-01-11T05:24:58;103506.06;;;-3.01;100.00
10806;BME280;5455;53.224;6.000;2024-01-11T05:27:25;103521.44;;;-2.95;100.00
10806;BME280;5455;53.224;6.000;2024-01-11T05:29:51;103509.16;;;-2.91;100.00
10806;BME280;5455;53.224;6.000;2024-01-11T05:32:18;103504.44;;;-2.83;100.00
10806;BME280;5455;53.224;6.000;2024-01-11T05:34:46;103495.09;;;-2.80;100.00
10806;BME280;5455;53.224;6.000;2024-01-11T05:37:13;103498.84;;;-2.74;100.00
10806;BME280;5455;53.224;6.000;2024-01-11T05:39:40;103497.00;;;-2.67;100.00
10806;BME280;5455;53.224;6.000;2024-01-11T05:42:07;103496.59;;;-2.64;100.00
10806;BME280;5455;53.224;6.000;2024-01-11T05:44:34;103503.88;;;-2.58;100.00
10806;BME280;5455;53.224;6.000;2024-01-11T05:47:01;103500.72;;;-2.49;100.00
10806;BME280;5455;53.224;6.000;2024-01-11T05:49:28;103496.38;;;-2.43;100.00
10806;BME280;5455;53.224;6.000;2024-01-11T05:51:55;103501.56;;;-2.42;100.00
10806;BME280;5455;53.224;6.000;2024-01-11T05:54:22;103497.84;;;-2.47;100.00
10806;BME280;5455;53.224;6.000;2024-01-11T05:56:49;103494.09;;;-2.40;100.00
10806;BME280;5455;53.224;6.000;2024-01-11T05:59:16;103500.34;;;-2.33;100.00
10806;BME280;5455;53.224;6.000;2024-01-11T06:01:43;103496.19;;;-2.29;100.00
10806;BME280;5455;53.224;6.000;2024-01-11T06:04:10;103495.75;;;-2.26;100.00
10806;BME280;5455;53.224;6.000;2024-01-11T06:06:37;103494.09;;;-2.20;100.00
10806;BME280;5455;53.224;6.000;2024-01-11T06:09:08;103484.13;;;-2.19;100.00
10806;BME280;5455;53.224;6.000;2024-01-11T06:11:36;103488.06;;;-2.15;100.00
10806;BME280;5455;53.224;6.000;2024-01-11T06:14:03;103490.13;;;-2.11;100.00
10806;BME280;5455;53.224;6.000;2024-01-11T06:16:31;103480.13;;;-2.04;100.00
10806;BME280;5455;53.224;6.000;2024-01-11T06:18:58;103491.78;;;-1.97;100.00
10806;BME280;5455;53.224;6.000;2024-01-11T06:21:25;103496.13;;;-1.89;100.00
10806;BME280;5455;53.224;6.000;2024-01-11T06:23:51;103499.25;;;-1.92;100.00
10806;BME280;5455;53.224;6.000;2024-01-11T06:26:19;103493.84;;;-1.92;100.00
10806;BME280;5455;53.224;6.000;2024-01-11T06:28:45;103485.94;;;-1.87;100.00
10806;BME280;5455;53.224;6.000;2024-01-11T06:31:12;103479.28;;;-1.91;100.00
10806;BME280;5455;53.224;6.000;2024-01-11T06:33:39;103486.13;;;-1.89;100.00
10806;BME280;5455;53.224;6.000;2024-01-11T06:36:07;103489.88;;;-1.83;100.00
10806;BME280;5455;53.224;6.000;2024-01-11T06:38:34;103480.28;;;-1.79;100.00
10806;BME280;5455;53.224;6.000;2024-01-11T06:41:01;103474.88;;;-1.79;100.00
10806;BME280;5455;53.224;6.000;2024-01-11T06:43:28;103471.94;;;-1.71;100.00
10806;BME280;5455;53.224;6.000;2024-01-11T06:45:55;103476.50;;;-1.65;100.00
10806;BME280;5455;53.224;6.000;2024-01-11T06:48:22;103473.38;;;-1.62;100.00
10806;BME280;5455;53.224;6.000;2024-01-11T06:50:49;103464.84;;;-1.59;100.00
10806;BME280;5455;53.224;6.000;2024-01-11T06:53:16;103465.31;;;-1.69;100.00
10806;BME280;5455;53.224;6.000;2024-01-11T06:55:43;103458.84;;;-1.68;100.00
10806;BME280;5455;53.224;6.000;2024-01-11T06:58:11;103455.94;;;-1.66;100.00
10806;BME280;5455;53.224;6.000;2024-01-11T07:00:38;103447.56;;;-1.58;100.00
10806;BME280;5455;53.224;6.000;2024-01-11T07:03:10;103441.13;;;-1.57;100.00
10806;BME280;5455;53.224;6.000;2024-01-11T07:05:37;103454.41;;;-1.55;100.00
10806;BME280;5455;53.224;6.000;2024-01-11T07:08:05;103451.69;;;-1.49;100.00
10806;BME280;5455;53.224;6.000;2024-01-11T07:10:32;103455.22;;;-1.48;100.00
10806;BME280;5455;53.224;6.000;2024-01-11T07:12:59;103462.25;;;-1.41;100.00
10806;BME280;5455;53.224;6.000;2024-01-11T07:15:25;103465.59;;;-1.39;100.00
10806;BME280;5455;53.224;6.000;2024-01-11T07:17:52;103472.22;;;-1.35;100.00
10806;BME280;5455;53.224;6.000;2024-01-11T07:20:20;103483.47;;;-1.31;100.00
10806;BME280;5455;53.224;6.000;2024-01-11T07:22:47;103488.84;;;-1.25;100.00
10806;BME280;5455;53.224;6.000;2024-01-11T07:25:14;103491.72;;;-1.20;100.00
10806;BME280;5455;53.224;6.000;2024-01-11T07:27:41;103487.38;;;-1.21;100.00
10806;BME280;5455;53.224;6.000;2024-01-11T07:30:09;103496.09;;;-1.19;100.00
10806;BME280;5455;53.224;6.000;2024-01-11T07:32:36;103492.38;;;-1.18;100.00
10806;BME280;5455;53.224;6.000;2024-01-11T07:35:03;103493.84;;;-1.22;100.00
10806;BME280;5455;53.224;6.000;2024-01-11T07:37:37;103497.34;;;-1.15;100.00
10806;BME280;5455;53.224;6.000;2024-01-11T07:40:05;103489.66;;;-1.18;100.00
10806;BME280;5455;53.224;6.000;2024-01-11T07:42:38;103486.53;;;-1.21;100.00
10806;BME280;5455;53.224;6.000;2024-01-11T07:45:07;103488.00;;;-1.19;100.00
10806;BME280;5455;53.224;6.000;2024-01-11T07:47:37;103467.78;;;-1.16;100.00
10806;BME280;5455;53.224;6.000;2024-01-11T07:50:05;103472.78;;;-1.20;100.00
10806;BME280;5455;53.224;6.000;2024-01-11T07:52:33;103464.66;;;-1.20;100.00
10806;BME280;5455;53.224;6.000;2024-01-11T07:55:01;103465.91;;;-1.16;100.00
10806;BME280;5455;53.224;6.000;2024-01-11T07:57:34;103459.63;;;-1.09;100.00
10806;BME280;5455;53.224;6.000;2024-01-11T08:00:02;103463.38;;;-1.11;100.00
10806;BME280;5455;53.224;6.000;2024-01-11T08:02:47;103464.78;;;-1.01;100.00
10806;BME280;5455;53.224;6.000;2024-01-11T08:05:14;103469.56;;;-0.97;100.00
10806;BME280;5455;53.224;6.000;2024-01-11T08:07:41;103476.81;;;-0.91;100.00
10806;BME280;5455;53.224;6.000;2024-01-11T08:10:11;103482.56;;;-0.81;100.00
10806;BME280;5455;53.224;6.000;2024-01-11T08:12:38;103479.38;;;-0.71;100.00
10806;BME280;5455;53.224;6.000;2024-01-11T08:15:05;103482.72;;;-0.69;100.00
10806;BME280;5455;53.224;6.000;2024-01-11T08:17:33;103480.38;;;-0.66;100.00
10806;BME280;5455;53.224;6.000;2024-01-11T08:20:00;103474.38;;;-0.74;100.00
10806;BME280;5455;53.224;6.000;2024-01-11T08:22:27;103476.06;;;-0.73;100.00
10806;BME280;5455;53.224;6.000;2024-01-11T08:24:55;103469.31;;;-0.64;100.00
10806;BME280;5455;53.224;6.000;2024-01-11T08:27:22;103475.16;;;-0.61;100.00
10806;BME280;5455;53.224;6.000;2024-01-11T08:29:49;103475.94;;;-0.60;100.00
10806;BME280;5455;53.224;6.000;2024-01-11T08:32:16;103485.47;;;-0.51;100.00
10806;BME280;5455;53.224;6.000;2024-01-11T08:34:57;103493.94;;;-0.41;100.00
10806;BME280;5455;53.224;6.000;2024-01-11T08:37:27;103499.38;;;-0.41;100.00
10806;BME280;5455;53.224;6.000;2024-01-11T08:39:54;103496.25;;;-0.44;100.00
10806;BME280;5455;53.224;6.000;2024-01-11T08:42:20;103486.03;;;-0.42;100.00
10806;BME280;5455;53.224;6.000;2024-01-11T08:44:47;103476.63;;;-0.40;100.00
10806;BME280;5455;53.224;6.000;2024-01-11T08:47:14;103486.38;;;-0.32;100.00
10806;BME280;5455;53.224;6.000;2024-01-11T08:49:42;103466.94;;;-0.29;100.00
10806;BME280;5455;53.224;6.000;2024-01-11T08:52:09;103465.63;;;-0.20;100.00
10806;BME280;5455;53.224;6.000;2024-01-11T08:54:40;103465.56;;;-0.14;100.00
10806;BME280;5455;53.224;6.000;2024-01-11T08:57:07;103464.81;;;-0.03;100.00
10806;BME280;5455;53.224;6.000;2024-01-11T08:59:35;103468.28;;;0.05;100.00
10806;BME280;5455;53.224;6.000;2024-01-11T09:02:02;103467.41;;;0.11;100.00
10806;BME280;5455;53.224;6.000;2024-01-11T09:04:41;103468.91;;;0.25;100.00
10806;BME280;5455;53.224;6.000;2024-01-11T09:07:08;103468.63;;;0.33;100.00
10806;BME280;5455;53.224;6.000;2024-01-11T09:09:35;103470.34;;;0.45;100.00
10806;BME280;5455;53.224;6.000;2024-01-11T09:12:16;103468.78;;;0.38;100.00
10806;BME280;5455;53.224;6.000;2024-01-11T09:14:43;103470.44;;;0.39;100.00
10806;BME280;5455;53.224;6.000;2024-01-11T09:17:10;103474.13;;;0.44;100.00
10806;BME280;5455;53.224;6.000;2024-01-11T09:19:37;103476.06;;;0.55;100.00
10806;BME280;5455;53.224;6.000;2024-01-11T09:22:07;103479.75;;;0.61;100.00
10806;BME280;5455;53.224;6.000;2024-01-11T09:24:36;103478.63;;;0.69;100.00
10806;BME280;5455;53.224;6.000;2024-01-11T09:27:06;103479.97;;;0.78;100.00
10806;BME280;5455;53.224;6.000;2024-01-11T09:29:34;103482.97;;;0.88;100.00
10806;BME280;5455;53.224;6.000;2024-01-11T09:32:02;103492.78;;;0.89;100.00
10806;BME280;5455;53.224;6.000;2024-01-11T09:34:29;103485.84;;;0.93;100.00
10806;BME280;5455;53.224;6.000;2024-01-11T09:36:56;103485.97;;;0.98;100.00
10806;BME280;5455;53.224;6.000;2024-01-11T09:39:26;103484.00;;;1.05;100.00
10806;BME280;5455;53.224;6.000;2024-01-11T09:42:08;103493.09;;;1.10;100.00
10806;BME280;5455;53.224;6.000;2024-01-11T09:44:38;103499.97;;;1.13;100.00
10806;BME280;5455;53.224;6.000;2024-01-11T09:47:08;103498.59;;;1.22;100.00
10806;BME280;5455;53.224;6.000;2024-01-11T09:49:41;103498.16;;;1.37;100.00
10806;BME280;5455;53.224;6.000;2024-01-11T09:52:09;103501.25;;;1.40;100.00
10806;BME280;5455;53.224;6.000;2024-01-11T09:54:39;103514.47;;;1.37;100.00
10806;BME280;5455;53.224;6.000;2024-01-11T09:57:08;103502.19;;;1.46;100.00
10806;BME280;5455;53.224;6.000;2024-01-11T09:59:37;103501.34;;;1.34;100.00
10806;BME280;5455;53.224;6.000;2024-01-11T10:02:04;103501.34;;;1.34;100.00
10806;BME280;5455;53.224;6.000;2024-01-11T10:04:35;103505.09;;;1.33;100.00
10806;BME280;5455;53.224;6.000;2024-01-11T10:07:07;103500.16;;;1.41;100.00
10806;BME280;5455;53.224;6.000;2024-01-11T10:09:36;103505.00;;;1.39;100.00
10806;BME280;5455;53.224;6.000;2024-01-11T10:12:03;103507.53;;;1.52;100.00
10806;BME280;5455;53.224;6.000;2024-01-11T10:14:31;103511.31;;;1.63;100.00
10806;BME280;5455;53.224;6.000;2024-01-11T10:16:59;103509.81;;;1.67;100.00
10806;BME280;5455;53.224;6.000;2024-01-11T10:19:26;103510.03;;;1.65;100.00
10806;BME280;5455;53.224;6.000;2024-01-11T10:21:53;103515.97;;;1.74;100.00
10806;BME280;5455;53.224;6.000;2024-01-11T10:24:20;103511.00;;;1.71;100.00
10806;BME280;5455;53.224;6.000;2024-01-11T10:26:47;103514.53;;;1.72;100.00
10806;BME280;5455;53.224;6.000;2024-01-11T10:29:14;103510.53;;;1.74;100.00
10806;BME280;5455;53.224;6.000;2024-01-11T10:31:41;103497.50;;;1.64;100.00
10806;BME280;5455;53.224;6.000;2024-01-11T10:34:08;103501.66;;;1.67;100.00
10806;BME280;5455;53.224;6.000;2024-01-11T10:36:36;103502.38;;;1.74;100.00
10806;BME280;5455;53.224;6.000;2024-01-11T10:39:03;103504.28;;;1.85;100.00
10806;BME280;5455;53.224;6.000;2024-01-11T10:41:46;103491.50;;;1.97;100.00
10806;BME280;5455;53.224;6.000;2024-01-11T10:44:25;103488.41;;;1.94;100.00
10806;BME280;5455;53.224;6.000;2024-01-11T10:46:55;103481.56;;;1.91;100.00
10806;BME280;5455;53.224;6.000;2024-01-11T10:49:25;103471.72;;;1.90;100.00
10806;BME280;5455;53.224;6.000;2024-01-11T10:52:04;103478.94;;;1.96;100.00
10806;BME280;5455;53.224;6.000;2024-01-11T10:54:34;103466.75;;;1.99;100.00
10806;BME280;5455;53.224;6.000;2024-01-11T10:57:02;103462.72;;;2.01;100.00
10806;BME280;5455;53.224;6.000;2024-01-11T10:59:34;103465.94;;;2.10;100.00
10806;BME280;5455;53.224;6.000;2024-01-11T11:02:05;103467.84;;;2.09;100.00
10806;BME280;5455;53.224;6.000;2024-01-11T11:04:40;103467.47;;;2.17;100.00
10806;BME280;5455;53.224;6.000;2024-01-11T11:07:09;103470.91;;;2.25;100.00
10806;BME280;5455;53.224;6.000;2024-01-11T11:09:37;103474.69;;;2.23;100.00
10806;BME280;5455;53.224;6.000;2024-01-11T11:12:05;103464.38;;;2.26;100.00
10806;BME280;5455;53.224;6.000;2024-01-11T11:14:34;103447.81;;;2.27;100.00
10806;BME280;5455;53.224;6.000;2024-01-11T11:17:02;103454.53;;;2.36;100.00
10806;BME280;5455;53.224;6.000;2024-01-11T11:19:31;103444.50;;;2.37;100.00
10806;BME280;5455;53.224;6.000;2024-01-11T11:21:58;103445.75;;;2.46;100.00
10806;BME280;5455;53.224;6.000;2024-01-11T11:24:25;103456.19;;;2.49;100.00
10806;BME280;5455;53.224;6.000;2024-01-11T11:26:52;103452.72;;;2.53;100.00
10806;BME280;5455;53.224;6.000;2024-01-11T11:29:19;103448.94;;;2.54;100.00
10806;BME280;5455;53.224;6.000;2024-01-11T11:31:47;103448.59;;;2.51;100.00
10806;BME280;5455;53.224;6.000;2024-01-11T11:34:15;103438.03;;;2.54;100.00
10806;BME280;5455;53.224;6.000;2024-01-11T11:36:50;103451.41;;;2.56;100.00
10806;BME280;5455;53.224;6.000;2024-01-11T11:39:22;103447.97;;;2.60;100.00
10806;BME280;5455;53.224;6.000;2024-01-11T11:41:50;103435.06;;;2.56;100.00
10806;BME280;5455;53.224;6.000;2024-01-11T11:44:17;103427.97;;;2.55;100.00
10806;BME280;5455;53.224;6.000;2024-01-11T11:46:44;103423.81;;;2.64;100.00
10806;BME280;5455;53.224;6.000;2024-01-11T11:49:13;103416.66;;;2.74;100.00
10806;BME280;5455;53.224;6.000;2024-01-11T11:51:43;103416.78;;;2.68;100.00
10806;BME280;5455;53.224;6.000;2024-01-11T11:54:10;103417.75;;;2.62;100.00
10806;BME280;5455;53.224;6.000;2024-01-11T11:56:37;103422.28;;;2.56;100.00
10806;BME280;5455;53.224;6.000;2024-01-11T11:59:06;103416.91;;;2.61;100.00
10806;BME280;5455;53.224;6.000;2024-01-11T12:01:33;103425.72;;;2.80;100.00
10806;BME280;5455;53.224;6.000;2024-01-11T12:04:02;103420.22;;;2.92;100.00
10806;BME280;5455;53.224;6.000;2024-01-11T12:06:32;103415.72;;;2.97;100.00
10806;BME280;5455;53.224;6.000;2024-01-11T12:09:04;103410.75;;;2.94;100.00
10806;BME280;5455;53.224;6.000;2024-01-11T12:11:32;103412.66;;;2.94;100.00
10806;BME280;5455;53.224;6.000;2024-01-11T12:14:01;103409.94;;;2.94;100.00
10806;BME280;5455;53.224;6.000;2024-01-11T12:16:29;103409.78;;;3.00;100.00
10806;BME280;5455;53.224;6.000;2024-01-11T12:18:55;103409.88;;;3.05;100.00
10806;BME280;5455;53.224;6.000;2024-01-11T12:21:23;103407.97;;;3.06;100.00
10806;BME280;5455;53.224;6.000;2024-01-11T12:23:50;103406.47;;;2.98;100.00
10806;BME280;5455;53.224;6.000;2024-01-11T12:26:17;103407.22;;;2.94;100.00
10806;BME280;5455;53.224;6.000;2024-01-11T12:28:50;103403.59;;;3.05;100.00
10806;BME280;5455;53.224;6.000;2024-01-11T12:31:17;103401.69;;;3.05;100.00
10806;BME280;5455;53.224;6.000;2024-01-11T12:33:47;103389.31;;;3.14;100.00
10806;BME280;5455;53.224;6.000;2024-01-11T12:36:15;103384.34;;;3.11;100.00
10806;BME280;5455;53.224;6.000;2024-01-11T12:38:48;103382.78;;;3.15;100.00
10806;BME280;5455;53.224;6.000;2024-01-11T12:41:21;103373.03;;;3.19;100.00
10806;BME280;5455;53.224;6.000;2024-01-11T12:43:49;103368.75;;;3.23;100.00
10806;BME280;5455;53.224;6.000;2024-01-11T12:46:16;103367.25;;;3.32;100.00
10806;BME280;5455;53.224;6.000;2024-01-11T12:48:44;103357.91;;;3.45;100.00
10806;BME280;5455;53.224;6.000;2024-01-11T12:51:11;103356.66;;;3.53;100.00
10806;BME280;5455;53.224;6.000;2024-01-11T12:53:47;103349.47;;;3.47;100.00
10806;BME280;5455;53.224;6.000;2024-01-11T12:56:18;103345.25;;;3.56;100.00